Terminal Aerodrome Forecast
Issued by NWS Midland/Odessa, TX

Home | Current Version | Previous Version | Text Only | Print | Product List | Glossary On
Versions: 1 2 3 4 5 6 7 8 9 10 11 12 13 14 15
830
FTUS44 KMAF 021125
TAFMAF
TAF
KMAF 021125Z 0212/0312 01010KT P6SM BKN050 BKN080
     FM021900 03006KT P6SM SCT070=

USA.gov is the U.S. government's official web portal to all federal, state and local government web resources and services.